Etusivu
METAR-TAF:

METAR-TAF

Lentoasemat :

Taylor County Airport

Medford, Wisconsin, Yhdysvallat

Leveyspiiri: 45-06-04N, Pituuspiiri: 090-18-12W, korkeus merenpinnasta: 448 m

Tämänhetkinen sää

Tämä raportti tehtiin 13 minuuttia sitten, kello 08.55 UTC
Tuuli 11 kn luoteesta puuskistuen 19 kn:hen
Lämpötila -4°C
Kosteus 93%
Ilmanpaine 1011 hPa
Näkyvyys: 2.8 km
Hajanaisia pilviä 900 ft:n korkeudessa
Hajonneita pilviä 1200 ft:n korkeudessa
Pilvistä 2200 ft:n korkeudessa
heikkoa lumisadetta

METAR: KMDZ 180855Z AUTO 31011G19KT 1 3/4SM -SN SCT009 BKN012 OVC022 M04/M05 A2984 RMK AO2 60001 T10421055

Aika: 03:08 (09:08 UTC)


TAF: puuttuu

Säähavainnot ja -ennusteet yli 4000 lentoasemalta (METAR- ja TAF-raportit).

Käytössä olevat sääasemat on merkitty karttaan keltaisilla ja punaisilla pisteillä.

Aseta hiiri pisteen päälle nähdäksesi sääaseman nimen.

Klikkaa sitten nähdäksesi säähavainnot ja -ennusteet.

Kartan vaihtaminen: klikkaa mustalla rastilla varustettuja vihreitä pisteitä, niin voit zoomata sisään; viivalla varustettua vihreää pistettä, niin voit zoomata ulos tai vihreitä nuolia, niin pääset viereisille kartoille.


METAR-TAF: